Time;durP1;ratioP1;P1;durP2;ratioP2;P2;SDS_P1;SDS_P2;PMS_P1;PMS_P2;Temp;Humidity;BMP_temperature;BMP_pressure;BME280_temperature;BME280_humidity;BME280_pressure;Samples;Min_cycle;Max_cycle;Signal;HPM_P1;HPM_P2
2022/07/31 00:01:22;;;;;;;23.98;18.70;;;;;;;20.55;nan;100170.13;5006942;28;20476;-70
2022/07/31 00:03:48;;;;;;;24.35;19.20;;;;;;;20.54;nan;100163.19;5008030;28;20423;-71
2022/07/31 00:06:13;;;;;;;23.80;19.00;;;;;;;20.57;nan;100205.44;5009566;28;20026;-70
2022/07/31 00:08:39;;;;;;;25.85;19.23;;;;;;;20.56;nan;100204.63;5009340;28;20037;-71
2022/07/31 00:11:04;;;;;;;22.67;18.73;;;;;;;20.60;nan;100202.16;4991671;28;20033;-70
2022/07/31 00:13:29;;;;;;;21.80;17.48;;;;;;;;;;5009709;28;20042;-70
2022/07/31 00:15:55;;;;;;;21.77;17.80;;;;;;;20.57;nan;100173.34;5010935;28;20049;-70
2022/07/31 00:18:20;;;;;;;24.40;17.25;;;;;;;20.60;nan;100199.50;5010078;28;20314;-69
2022/07/31 00:20:46;;;;;;;21.52;17.27;;;;;;;20.58;nan;100210.47;5008695;28;20069;-70
2022/07/31 00:23:11;;;;;;;20.48;16.42;;;;;;;20.63;nan;100206.91;5009826;28;20087;-71
2022/07/31 00:25:37;;;;;;;20.13;17.33;;;;;;;20.63;nan;100208.81;5010119;28;20096;-71
2022/07/31 00:28:03;;;;;;;20.10;16.95;;;;;;;20.62;nan;100193.84;5008073;28;20463;-69
2022/07/31 00:30:28;;;;;;;18.73;15.73;;;;;;;;;;5006951;28;20034;-70
2022/07/31 00:32:54;;;;;;;19.55;15.90;;;;;;;;;;5006990;28;20041;-70
2022/07/31 00:35:19;;;;;;;22.90;16.23;;;;;;;20.58;nan;100228.41;5008510;28;20038;-70
2022/07/31 00:37:45;;;;;;;20.27;15.60;;;;;;;20.65;nan;100225.38;5012984;28;20764;-71
2022/07/31 00:40:14;;;;;;;16.90;14.35;;;;;;;20.59;nan;100209.41;5009065;28;20085;-71
2022/07/31 00:42:40;;;;;;;18.38;14.52;;;;;;;20.59;nan;100198.72;5012010;28;20366;-71
2022/07/31 00:45:06;;;;;;;16.30;14.07;;;;;;;20.60;nan;100194.94;5014191;28;20056;-71
2022/07/31 00:47:32;;;;;;;18.00;13.85;;;;;;;20.58;nan;100239.91;5011615;28;20036;-71
2022/07/31 00:49:58;;;;;;;18.52;13.77;;;;;;;;;;5009710;28;20029;-71
2022/07/31 00:52:24;;;;;;;15.68;12.93;;;;;;;20.60;nan;100210.19;5012803;28;20127;-71
2022/07/31 00:54:49;;;;;;;16.85;13.15;;;;;;;20.54;nan;100265.66;5013660;28;20069;-71
2022/07/31 00:57:14;;;;;;;14.40;12.88;;;;;;;20.59;nan;100201.38;5009816;28;20121;-72
2022/07/31 00:59:40;;;;;;;16.13;13.07;;;;;;;20.60;nan;100216.34;5011528;28;20085;-71
2022/07/31 01:02:07;;;;;;;16.48;12.05;;;;;;;20.56;nan;100188.56;5010043;28;20042;-70
2022/07/31 01:04:33;;;;;;;13.63;11.35;;;;;;;20.59;nan;100219.28;5013103;28;20399;-70
2022/07/31 01:06:59;;;;;;;12.82;11.05;;;;;;;20.52;nan;100186.75;5008963;28;20083;-70
2022/07/31 01:09:26;;;;;;;13.55;10.25;;;;;;;20.53;nan;100274.75;5009965;28;20036;-71
2022/07/31 01:12:02;;;;;;;13.65;11.20;;;;;;;20.51;nan;100218.06;5010617;28;20412;-71
2022/07/31 01:14:30;;;;;;;12.07;10.23;;;;;;;;;;5008908;28;20128;-71
2022/07/31 01:16:58;;;;;;;13.52;9.27;;;;;;;20.45;nan;100215.78;5012621;28;20051;-72
2022/07/31 01:19:36;;;;;;;10.30;9.02;;;;;;;20.45;nan;100219.28;5009512;28;20041;-71
2022/07/31 01:22:15;;;;;;;9.30;8.18;;;;;;;20.43;nan;100200.03;5010814;28;20057;-71
2022/07/31 01:24:49;;;;;;;10.48;8.13;;;;;;;20.40;nan;100222.03;5011279;28;20137;-71
2022/07/31 01:27:51;;;;;;;9.88;8.15;;;;;;;20.36;nan;100229.06;5010647;28;20038;-71
2022/07/31 01:30:19;;;;;;;9.50;7.72;;;;;;;20.30;nan;100232.91;5009104;28;20084;-70
2022/07/31 01:32:49;;;;;;;8.38;6.90;;;;;;;20.26;nan;100226.56;5009162;28;20034;-71
2022/07/31 01:35:21;;;;;;;8.02;7.18;;;;;;;20.23;nan;100227.91;5010491;28;20515;-70
2022/07/31 01:37:59;;;;;;;9.90;6.88;;;;;;;20.18;nan;100228.00;5012462;28;20072;-71
2022/07/31 01:40:26;;;;;;;8.55;6.63;;;;;;;20.16;nan;100233.66;5009982;28;20487;-70
2022/07/31 01:43:00;;;;;;;11.95;6.95;;;;;;;20.10;nan;100221.47;5012076;28;20084;-70
2022/07/31 01:45:27;;;;;;;7.55;6.63;;;;;;;;;;5007884;28;20029;-70
2022/07/31 01:47:55;;;;;;;7.78;6.38;;;;;;;19.99;nan;100217.34;5008854;28;20091;-70
2022/07/31 01:50:24;;;;;;;8.82;6.07;;;;;;;19.96;nan;100228.63;5001908;28;20034;-71
2022/07/31 01:52:50;;;;;;;7.47;6.28;;;;;;;19.91;nan;100224.16;5007722;28;20492;-71
2022/07/31 01:55:17;;;;;;;6.18;5.38;;;;;;;19.89;nan;100223.66;5005146;28;20040;-70
2022/07/31 01:57:44;;;;;;;6.50;5.75;;;;;;;19.83;nan;100234.75;5010995;28;20042;-71
2022/07/31 02:00:11;;;;;;;7.63;5.80;;;;;;;19.77;nan;100269.53;5010608;28;20034;-70
2022/07/31 02:02:38;;;;;;;5.97;5.38;;;;;;;19.75;nan;100223.63;5010465;28;20463;-69
2022/07/31 02:05:06;;;;;;;6.28;5.38;;;;;;;19.73;nan;100195.63;5012424;28;20052;-71
2022/07/31 02:07:37;;;;;;;7.68;5.57;;;;;;;19.60;nan;100233.69;5010601;28;20033;-70
2022/07/31 02:10:03;;;;;;;10.90;5.93;;;;;;;;;;5011615;28;20546;-71
2022/07/31 02:12:31;;;;;;;6.88;5.57;;;;;;;19.65;nan;100242.44;5011709;28;20076;-71
2022/07/31 02:14:57;;;;;;;7.65;5.43;;;;;;;19.63;nan;100227.78;5011039;28;20049;-70
2022/07/31 02:17:25;;;;;;;6.72;5.45;;;;;;;19.51;nan;100239.69;5008199;28;20034;-70
2022/07/31 02:19:51;;;;;;;8.05;5.68;;;;;;;;;;5008071;28;20077;-70
2022/07/31 02:22:16;;;;;;;5.57;5.07;;;;;;;19.58;nan;100230.53;5007828;28;20436;-71
2022/07/31 02:24:42;;;;;;;6.75;6.05;;;;;;;19.50;nan;100216.72;5010824;28;20064;-71
2022/07/31 02:27:10;;;;;;;8.77;5.80;;;;;;;19.54;nan;100236.44;5012405;28;20099;-70
2022/07/31 02:29:37;;;;;;;6.18;5.57;;;;;;;19.54;nan;100249.00;5010759;28;20030;-70
2022/07/31 02:32:04;;;;;;;8.82;6.03;;;;;;;19.49;nan;100289.13;5006817;28;20052;-70
2022/07/31 02:34:31;;;;;;;7.60;5.60;;;;;;;19.46;nan;100250.44;5009399;28;20091;-71
2022/07/31 02:36:58;;;;;;;7.60;5.85;;;;;;;19.38;nan;100202.22;5009096;28;20026;-70
2022/07/31 02:39:25;;;;;;;9.88;5.60;;;;;;;19.42;nan;100252.09;5011429;28;20439;-70
2022/07/31 02:41:51;;;;;;;7.00;5.57;;;;;;;19.36;nan;100173.13;5013271;28;20103;-71
2022/07/31 02:44:18;;;;;;;6.32;5.68;;;;;;;19.41;nan;100249.72;5009630;28;20500;-70
2022/07/31 02:46:45;;;;;;;6.70;5.85;;;;;;;19.37;nan;100240.69;5010943;28;20044;-70
2022/07/31 02:49:14;;;;;;;6.70;5.97;;;;;;;19.33;nan;100251.16;5011526;28;20435;-69
2022/07/31 02:51:40;;;;;;;;;;;;;;;19.31;nan;100238.06;5011305;28;20551;-70
2022/07/31 02:54:06;;;;;;;6.13;5.50;;;;;;;19.22;nan;100303.06;5008616;28;19936;-71
2022/07/31 02:56:32;;;;;;;6.45;5.85;;;;;;;19.27;nan;100261.09;5011832;28;20400;-71
2022/07/31 02:58:57;;;;;;;11.52;6.10;;;;;;;;;;5010856;28;20061;-70
2022/07/31 03:01:23;;;;;;;6.87;6.17;;;;;;;;;;5010593;28;20077;-71
2022/07/31 03:03:49;;;;;;;6.33;5.33;;;;;;;19.15;nan;100294.63;5009824;28;20746;-70
2022/07/31 03:06:15;;;;;;;6.53;5.93;;;;;;;;;;5008975;28;20274;-70
2022/07/31 03:08:40;;;;;;;8.25;5.72;;;;;;;19.12;nan;100253.28;5007593;28;20037;-70
2022/07/31 03:11:06;;;;;;;9.38;6.05;;;;;;;;;;5010208;28;20484;-70
2022/07/31 03:13:33;;;;;;;7.43;6.38;;;;;;;19.08;nan;100257.59;5010090;28;20030;-70
2022/07/31 03:16:00;;;;;;;9.90;6.30;;;;;;;19.05;nan;100266.16;5009544;28;20492;-70
2022/07/31 03:18:27;;;;;;;6.75;6.07;;;;;;;19.02;nan;100267.53;5010963;28;20119;-71
2022/07/31 03:20:55;;;;;;;10.07;6.00;;;;;;;18.97;nan;100267.59;5008903;28;20052;-70
2022/07/31 03:23:24;;;;;;;8.15;5.90;;;;;;;18.95;nan;100260.94;5009615;28;20044;-70
2022/07/31 03:25:50;;;;;;;6.40;5.32;;;;;;;18.89;nan;100286.88;5007688;28;20041;-71
2022/07/31 03:28:19;;;;;;;9.05;5.97;;;;;;;18.91;nan;100256.19;5004809;28;20037;-70
2022/07/31 03:30:46;;;;;;;7.07;6.35;;;;;;;;;;5004127;28;20434;-72
2022/07/31 03:33:11;;;;;;;6.75;5.97;;;;;;;18.83;nan;100266.69;5004100;28;20038;-72
2022/07/31 03:35:37;;;;;;;7.15;5.72;;;;;;;18.84;nan;100252.25;5005322;28;20479;-72
2022/07/31 03:38:04;;;;;;;6.13;5.53;;;;;;;;;;5006404;28;20030;-71
2022/07/31 03:40:30;;;;;;;7.20;5.93;;;;;;;18.81;nan;100282.16;5005283;28;20030;-72
2022/07/31 03:42:57;;;;;;;6.45;5.57;;;;;;;18.76;nan;100268.84;5006925;28;20045;-71
2022/07/31 03:45:23;;;;;;;6.93;6.22;;;;;;;18.73;nan;100240.09;5002948;28;20037;-71
2022/07/31 03:47:49;;;;;;;9.20;5.90;;;;;;;18.73;nan;100285.44;5008482;28;20053;-72
2022/07/31 03:50:16;;;;;;;8.27;6.32;;;;;;;18.72;nan;100295.28;5009342;28;20071;-69
2022/07/31 03:52:43;;;;;;;7.35;6.63;;;;;;;18.67;nan;100282.00;5009414;28;20034;-70
2022/07/31 03:55:09;;;;;;;8.90;6.68;;;;;;;18.53;nan;100247.19;5010221;28;20121;-69
2022/07/31 03:57:36;;;;;;;7.57;6.78;;;;;;;18.52;nan;100255.50;5006178;28;20033;-70
2022/07/31 04:00:03;;;;;;;7.95;6.47;;;;;;;18.63;nan;100289.00;5004513;28;20085;-70
2022/07/31 04:02:29;;;;;;;7.38;6.68;;;;;;;18.62;nan;100292.72;5006083;28;20044;-70
2022/07/31 04:04:54;;;;;;;7.60;6.80;;;;;;;18.62;nan;100303.38;5008925;28;20033;-72
2022/07/31 04:07:20;;;;;;;8.30;6.80;;;;;;;18.51;nan;100270.69;5009460;28;20084;-70
2022/07/31 04:09:46;;;;;;;16.42;6.78;;;;;;;18.61;nan;100267.13;5010091;28;20038;-70
2022/07/31 04:12:11;;;;;;;7.22;6.53;;;;;;;18.64;nan;100271.91;5012640;28;20720;-70
2022/07/31 04:14:36;;;;;;;8.93;6.68;;;;;;;18.59;nan;100255.97;5011349;28;20034;-69
2022/07/31 04:17:02;;;;;;;8.98;6.70;;;;;;;18.60;nan;100253.00;5010295;28;20839;-70
2022/07/31 04:19:29;;;;;;;11.30;6.70;;;;;;;18.59;nan;100277.28;5012826;28;20392;-69
2022/07/31 04:21:56;;;;;;;7.45;6.65;;;;;;;18.55;nan;100286.91;5012990;28;20508;-68
2022/07/31 04:24:22;;;;;;;8.60;6.93;;;;;;;18.57;nan;100276.78;5014896;28;20041;-67
2022/07/31 04:26:48;;;;;;;7.28;6.53;;;;;;;18.57;nan;100290.91;5010888;28;20046;-67
2022/07/31 04:29:14;;;;;;;7.10;6.38;;;;;;;18.61;nan;100289.25;5013261;28;20084;-67
2022/07/31 04:31:39;;;;;;;7.53;6.45;;;;;;;;;;5005885;28;20038;-68
2022/07/31 04:34:04;;;;;;;13.90;7.27;;;;;;;18.68;nan;100288.94;5013854;28;20507;-68
2022/07/31 04:36:30;;;;;;;11.80;6.75;;;;;;;;;;5010911;28;20060;-67
2022/07/31 04:38:55;;;;;;;7.85;6.55;;;;;;;18.76;nan;100288.34;5009085;28;20396;-68
2022/07/31 04:41:21;;;;;;;7.50;6.53;;;;;;;18.76;nan;100283.00;5013485;28;20830;-68
2022/07/31 04:43:46;;;;;;;8.45;6.93;;;;;;;18.83;nan;100291.47;5014294;28;20094;-68
2022/07/31 04:46:11;;;;;;;9.05;6.35;;;;;;;18.88;nan;100285.31;5012090;28;20040;-68
2022/07/31 04:48:37;;;;;;;8.63;6.60;;;;;;;18.89;nan;100285.03;5013681;28;20084;-70
2022/07/31 04:51:03;;;;;;;7.72;6.20;;;;;;;18.97;nan;100277.47;5012622;28;20038;-71
2022/07/31 04:53:28;;;;;;;7.15;6.45;;;;;;;19.01;nan;100273.16;5012735;28;20045;-69
2022/07/31 04:56:54;;;;;;;7.45;6.75;;;;;;;;;;5013858;28;20026;-69
2022/07/31 04:58:48;;;;;;;7.38;6.40;;;;;;;19.07;nan;100258.69;4998327;28;20052;-70
2022/07/31 05:01:13;;;;;;;8.73;6.50;;;;;;;19.25;nan;100273.94;5013930;28;20038;-70
2022/07/31 05:03:39;;;;;;;8.90;6.88;;;;;;;19.31;nan;100269.34;5010523;28;20027;-70
2022/07/31 05:06:11;;;;;;;8.10;6.20;;;;;;;19.30;nan;100323.81;5010707;28;20070;-70
2022/07/31 05:08:37;;;;;;;7.40;6.57;;;;;;;19.47;nan;100276.06;5011402;28;20076;-70
2022/07/31 05:11:22;;;;;;;10.23;8.63;;;;;;;19.57;nan;100259.13;5010288;28;20034;-70
2022/07/31 05:13:52;;;;;;;13.63;12.05;;;;;;;19.70;nan;100270.97;5013255;28;20388;-68
2022/07/31 05:16:19;;;;;;;7.72;6.93;;;;;;;19.71;nan;100267.25;5012942;28;20026;-68
2022/07/31 05:18:45;;;;;;;7.22;6.25;;;;;;;19.83;nan;100293.53;5012149;28;20092;-70
2022/07/31 05:21:12;;;;;;;7.43;6.30;;;;;;;19.83;nan;100272.16;5012228;28;20125;-69
2022/07/31 05:23:42;;;;;;;7.20;6.50;;;;;;;19.97;nan;100337.16;5013259;28;20034;-69
2022/07/31 05:26:08;;;;;;;7.60;6.00;;;;;;;20.06;nan;100287.28;5013711;28;20064;-69
2022/07/31 05:28:34;;;;;;;6.82;6.13;;;;;;;20.12;nan;100278.09;5012747;28;20030;-69
2022/07/31 05:31:00;;;;;;;9.13;6.30;;;;;;;20.20;nan;100287.34;5009586;28;20034;-69
2022/07/31 05:33:27;;;;;;;7.05;6.35;;;;;;;20.28;nan;100304.59;5008297;28;20041;-69
2022/07/31 05:35:53;;;;;;;6.85;6.20;;;;;;;20.34;nan;100288.19;5009554;28;20034;-69
2022/07/31 05:38:18;;;;;;;7.15;6.03;;;;;;;20.41;nan;100279.78;5011542;28;20026;-69
2022/07/31 05:40:44;;;;;;;6.68;5.97;;;;;;;20.33;nan;100270.56;5009877;28;20045;-66
2022/07/31 05:43:09;;;;;;;6.78;6.07;;;;;;;20.33;nan;100273.22;5006420;28;20037;-69
2022/07/31 05:45:35;;;;;;;6.95;6.25;;;;;;;20.45;nan;100286.13;5008519;28;20547;-69
2022/07/31 05:48:01;;;;;;;8.30;6.05;;;;;;;20.45;nan;100347.66;5011087;28;20056;-69
2022/07/31 05:50:26;;;;;;;7.50;5.90;;;;;;;20.45;nan;100288.00;5007194;28;20026;-69
2022/07/31 05:52:52;;;;;;;6.85;6.20;;;;;;;20.44;nan;100330.00;5010964;28;20109;-69
2022/07/31 05:55:17;;;;;;;7.28;5.97;;;;;;;20.56;nan;100295.59;5009612;28;20036;-69
2022/07/31 05:57:43;;;;;;;6.47;5.57;;;;;;;;;;5012132;28;20060;-69
2022/07/31 06:00:09;;;;;;;8.00;5.80;;;;;;;20.64;nan;100304.84;5006589;28;20373;-69
2022/07/31 06:02:34;;;;;;;7.78;6.05;;;;;;;20.62;nan;100343.69;5011175;28;20386;-71
2022/07/31 06:05:00;;;;;;;8.32;5.70;;;;;;;20.74;nan;100296.63;5009252;28;20030;-70
2022/07/31 06:07:26;;;;;;;6.78;5.82;;;;;;;20.80;nan;100302.66;5011903;28;20060;-70
2022/07/31 06:09:51;;;;;;;6.22;5.32;;;;;;;;;;5009614;28;20030;-69
2022/07/31 06:12:17;;;;;;;6.65;6.03;;;;;;;21.01;nan;100293.16;5016575;28;20038;-69
2022/07/31 06:14:42;;;;;;;6.10;5.43;;;;;;;;;;5008391;28;20033;-69
2022/07/31 06:17:07;;;;;;;6.17;5.57;;;;;;;21.15;nan;100300.41;5009592;28;20038;-69
2022/07/31 06:19:33;;;;;;;9.13;5.85;;;;;;;21.19;nan;100315.59;5005126;28;20284;-70
2022/07/31 06:21:59;;;;;;;9.30;6.10;;;;;;;21.15;nan;100261.03;5010743;28;20038;-68
2022/07/31 06:24:25;;;;;;;7.03;6.40;;;;;;;21.08;nan;100310.72;5006795;28;20030;-69
2022/07/31 06:26:55;;;;;;;6.95;6.25;;;;;;;21.07;nan;100317.16;5009237;28;20096;-69
2022/07/31 06:29:21;;;;;;;7.15;6.30;;;;;;;21.12;nan;100293.78;5008902;28;20137;-70
2022/07/31 06:31:47;;;;;;;6.25;5.65;;;;;;;21.11;nan;100320.84;5005927;28;20053;-71
2022/07/31 06:34:12;;;;;;;6.75;6.10;;;;;;;21.18;nan;100326.59;5006022;28;20081;-71
2022/07/31 06:36:38;;;;;;;7.70;5.80;;;;;;;21.16;nan;100320.75;5009315;28;20034;-72
2022/07/31 06:39:04;;;;;;;8.00;5.93;;;;;;;21.22;nan;100306.97;5003795;28;20042;-72
2022/07/31 06:41:47;;;;;;;8.45;6.15;;;;;;;21.31;nan;100323.13;5023766;28;20043;-72
2022/07/31 06:44:21;;;;;;;6.15;5.50;;;;;;;21.33;nan;100298.72;5005811;28;20117;-70
2022/07/31 06:46:46;;;;;;;6.53;5.82;;;;;;;21.29;nan;100290.50;5010944;28;20029;-71
2022/07/31 06:49:12;;;;;;;6.38;5.55;;;;;;;21.34;nan;100274.31;5007894;28;20101;-71
2022/07/31 06:51:38;;;;;;;9.10;5.95;;;;;;;21.24;nan;100293.28;5008515;28;20069;-71
2022/07/31 06:54:05;;;;;;;6.85;5.80;;;;;;;21.36;nan;100319.56;5007409;28;20038;-72
2022/07/31 06:56:31;;;;;;;8.60;5.80;;;;;;;21.32;nan;100310.53;5010557;28;20034;-71
2022/07/31 06:58:57;;;;;;;6.28;5.25;;;;;;;21.27;nan;100286.53;5008877;28;20034;-71
2022/07/31 07:01:23;;;;;;;8.45;5.43;;;;;;;21.38;nan;100298.59;5009690;28;20034;-71
2022/07/31 07:03:48;;;;;;;5.72;5.22;;;;;;;;;;5012177;28;20038;-70
2022/07/31 07:06:14;;;;;;;4.88;4.43;;;;;;;21.65;nan;100303.19;5012170;28;20033;-70
2022/07/31 07:08:39;;;;;;;6.03;5.47;;;;;;;21.75;nan;100350.41;5012243;28;20033;-70
2022/07/31 07:11:05;;;;;;;5.22;4.72;;;;;;;21.79;nan;100284.38;5010801;28;20061;-70
2022/07/31 07:13:30;;;;;;;4.43;4.03;;;;;;;21.78;nan;100291.59;5007921;28;20396;-70
2022/07/31 07:15:56;;;;;;;4.90;4.38;;;;;;;21.72;nan;100282.13;5009901;28;20026;-70
2022/07/31 07:18:21;;;;;;;5.13;4.63;;;;;;;21.78;nan;100296.97;5007510;28;22010;-70
2022/07/31 07:20:50;;;;;;;5.28;4.78;;;;;;;21.80;nan;100284.06;5009721;28;20040;-70
2022/07/31 07:23:17;;;;;;;7.22;5.10;;;;;;;21.88;nan;100299.44;5006090;28;20044;-70
2022/07/31 07:25:43;;;;;;;5.20;4.70;;;;;;;21.88;nan;100279.88;5011593;28;20049;-70
2022/07/31 07:28:08;;;;;;;8.82;4.55;;;;;;;21.85;nan;100324.16;5011518;28;20038;-69
2022/07/31 07:30:34;;;;;;;6.32;4.40;;;;;;;21.88;nan;100243.16;5009180;28;20452;-69
2022/07/31 07:33:00;;;;;;;6.22;4.78;;;;;;;21.91;nan;100251.66;5003579;28;20042;-70
2022/07/31 07:35:26;;;;;;;6.97;4.70;;;;;;;21.93;nan;100262.88;5008201;28;20128;-71
2022/07/31 07:37:52;;;;;;;5.18;4.25;;;;;;;21.92;nan;100304.19;5004654;28;20041;-69
2022/07/31 07:40:18;;;;;;;5.20;4.70;;;;;;;21.91;nan;100284.63;5006491;28;20034;-69
2022/07/31 07:42:44;;;;;;;5.35;4.50;;;;;;;21.96;nan;100289.88;5005439;28;20036;-70
2022/07/31 07:45:10;;;;;;;4.93;4.18;;;;;;;21.97;nan;100294.13;5011262;28;20046;-69
2022/07/31 07:47:35;;;;;;;4.63;4.22;;;;;;;;;;5017344;28;20391;-71
2022/07/31 07:50:02;;;;;;;7.55;4.00;;;;;;;22.03;nan;100286.78;5015279;28;20756;-70
2022/07/31 07:52:27;;;;;;;4.43;4.03;;;;;;;22.01;nan;100257.56;5012580;28;20029;-69
2022/07/31 07:54:53;;;;;;;5.45;3.83;;;;;;;;;;5015735;28;20125;-69
2022/07/31 07:57:19;;;;;;;5.87;3.57;;;;;;;21.99;nan;100317.97;5014306;28;20042;-70
2022/07/31 07:59:45;;;;;;;4.40;4.00;;;;;;;22.08;nan;100302.75;5016738;28;20080;-71
2022/07/31 08:02:13;;;;;;;6.25;3.63;;;;;;;;;;5012778;28;20080;-69
2022/07/31 08:04:39;;;;;;;4.10;3.60;;;;;;;22.20;nan;100304.88;5013176;28;20038;-69
2022/07/31 08:07:04;;;;;;;4.20;3.80;;;;;;;22.21;nan;100293.84;5012053;28;20037;-70
2022/07/31 08:09:31;;;;;;;3.78;3.33;;;;;;;22.35;nan;100285.75;5013668;28;20026;-69
2022/07/31 08:11:56;;;;;;;3.85;3.20;;;;;;;22.31;nan;100298.19;5013344;28;20045;-70
2022/07/31 08:14:22;;;;;;;3.17;2.88;;;;;;;22.36;nan;100348.25;5016003;28;20050;-69
2022/07/31 08:16:47;;;;;;;4.22;3.22;;;;;;;22.33;nan;100287.16;5017397;28;20495;-69
2022/07/31 08:19:13;;;;;;;3.53;3.20;;;;;;;22.27;nan;100303.38;5012724;28;20045;-69
2022/07/31 08:21:38;;;;;;;3.67;3.38;;;;;;;22.32;nan;100309.72;5013798;28;20056;-70
2022/07/31 08:24:05;;;;;;;5.65;3.60;;;;;;;22.32;nan;100307.84;5015026;28;20049;-71
2022/07/31 08:27:22;;;;;;;6.45;4.10;;;;;;;22.31;nan;100295.50;5013487;28;20526;-69
2022/07/31 08:29:16;;;;;;;6.57;3.42;;;;;;;22.30;nan;100307.34;5015703;28;20033;-71
2022/07/31 08:31:42;;;;;;;4.15;3.60;;;;;;;22.28;nan;100310.31;5014905;28;20046;-68
2022/07/31 08:34:09;;;;;;;3.88;3.28;;;;;;;22.28;nan;100363.19;5015307;28;20042;-71
2022/07/31 08:36:34;;;;;;;4.13;3.08;;;;;;;22.34;nan;100265.41;5015777;28;20499;-70
2022/07/31 08:39:02;;;;;;;3.22;2.92;;;;;;;22.33;nan;100274.53;5015330;28;20038;-71
2022/07/31 08:41:28;;;;;;;3.28;2.83;;;;;;;22.36;nan;100318.72;5011020;28;20038;-71
2022/07/31 08:43:54;;;;;;;3.25;2.58;;;;;;;22.38;nan;100308.50;5016524;28;20033;-71
2022/07/31 08:46:21;;;;;;;2.95;2.75;;;;;;;22.36;nan;100326.78;5012050;28;20034;-71
2022/07/31 08:48:52;;;;;;;4.00;2.83;;;;;;;22.32;nan;100304.38;5013081;28;20064;-71
2022/07/31 08:51:18;;;;;;;3.40;3.03;;;;;;;22.31;nan;100311.59;5011900;28;20038;-71
2022/07/31 08:53:47;;;;;;;3.30;2.85;;;;;;;22.34;nan;100269.94;5013251;28;20733;-70
2022/07/31 08:56:12;;;;;;;4.70;2.65;;;;;;;22.36;nan;100290.00;5007403;28;20058;-71
2022/07/31 08:58:38;;;;;;;2.92;2.67;;;;;;;22.32;nan;100317.78;5009076;28;20042;-70
2022/07/31 09:01:03;;;;;;;3.50;2.78;;;;;;;22.36;nan;100299.94;5009419;28;20562;-69
2022/07/31 09:03:29;;;;;;;3.13;2.83;;;;;;;22.29;nan;100333.38;5007956;28;20034;-70
2022/07/31 09:05:54;;;;;;;3.58;2.25;;;;;;;22.37;nan;100298.88;5012484;28;20041;-70
2022/07/31 09:08:20;;;;;;;2.25;2.05;;;;;;;22.35;nan;100260.81;5009890;28;20466;-70
2022/07/31 09:10:46;;;;;;;2.97;2.38;;;;;;;22.41;nan;100270.31;5008168;28;20030;-71
2022/07/31 09:13:14;;;;;;;2.45;2.25;;;;;;;22.44;nan;100288.50;5009084;28;20444;-68
2022/07/31 09:15:39;;;;;;;2.10;1.90;;;;;;;22.46;nan;100259.47;5012678;28;20116;-69
2022/07/31 09:18:18;;;;;;;4.55;2.75;;;;;;;22.46;nan;100299.72;5007497;28;20199;-68
2022/07/31 09:20:59;;;;;;;3.50;2.33;;;;;;;22.40;nan;100252.63;5008768;28;20053;-69
2022/07/31 09:23:26;;;;;;;3.13;2.30;;;;;;;22.60;nan;100278.16;5011022;28;20069;-68
2022/07/31 09:26:03;;;;;;;2.35;2.15;;;;;;;22.69;nan;100279.75;5008502;28;20045;-69
2022/07/31 09:28:44;;;;;;;2.60;2.40;;;;;;;22.75;nan;100250.09;5008704;28;20084;-67
2022/07/31 09:31:11;;;;;;;3.03;2.15;;;;;;;22.80;nan;100256.13;5007368;28;20035;-69
2022/07/31 09:33:38;;;;;;;3.67;2.30;;;;;;;22.77;nan;100325.75;5009771;28;20108;-71
2022/07/31 09:36:05;;;;;;;2.63;2.42;;;;;;;22.72;nan;100281.03;5012193;28;20111;-71
2022/07/31 09:38:33;;;;;;;3.25;2.28;;;;;;;22.77;nan;100277.44;5012077;28;20037;-70
2022/07/31 09:41:19;;;;;;;3.28;2.53;;;;;;;22.77;nan;100264.81;5008763;28;20487;-69
2022/07/31 09:43:54;;;;;;;3.25;2.50;;;;;;;22.79;nan;100286.75;5007501;28;20041;-70
2022/07/31 09:46:24;;;;;;;4.78;2.30;;;;;;;22.83;nan;100260.88;5009152;28;20034;-71
2022/07/31 09:48:54;;;;;;;2.58;2.38;;;;;;;22.87;nan;100269.91;5009435;28;20033;-70
2022/07/31 09:51:20;;;;;;;3.55;2.40;;;;;;;22.94;nan;100266.78;5012540;28;20022;-70
2022/07/31 09:53:56;;;;;;;2.50;2.28;;;;;;;23.00;nan;100259.38;5010284;28;20030;-70
2022/07/31 09:56:34;;;;;;;5.57;4.07;;;;;;;23.03;nan;100250.69;5008539;28;20029;-71
2022/07/31 09:59:01;;;;;;;3.77;3.30;;;;;;;23.05;nan;100254.66;5009228;28;20042;-70
2022/07/31 10:01:27;;;;;;;3.70;2.38;;;;;;;23.13;nan;100270.03;5007300;28;20044;-69
2022/07/31 10:03:56;;;;;;;3.67;2.40;;;;;;;23.13;nan;100274.59;5010676;28;20029;-70
2022/07/31 10:06:26;;;;;;;4.00;2.15;;;;;;;23.07;nan;100240.94;5009610;28;20062;-70
2022/07/31 10:08:52;;;;;;;2.55;2.35;;;;;;;23.11;nan;100240.00;5008453;28;20026;-69
2022/07/31 10:11:19;;;;;;;2.83;2.38;;;;;;;23.19;nan;100272.56;5010176;28;20115;-70
2022/07/31 10:13:48;;;;;;;2.25;2.05;;;;;;;23.22;nan;100261.97;5010669;28;20518;-69
2022/07/31 10:16:14;;;;;;;3.00;2.30;;;;;;;23.20;nan;100306.34;5005612;28;20073;-69
2022/07/31 10:18:44;;;;;;;3.30;2.13;;;;;;;23.28;nan;100262.63;5008610;28;20069;-70
2022/07/31 10:21:10;;;;;;;4.63;2.30;;;;;;;23.26;nan;100265.63;5007946;28;20045;-70
2022/07/31 10:23:40;;;;;;;3.47;2.60;;;;;;;23.21;nan;100254.22;5009688;28;20034;-68
2022/07/31 10:26:05;;;;;;;2.85;2.50;;;;;;;23.28;nan;100268.00;5008461;28;20046;-68
2022/07/31 10:28:31;;;;;;;4.28;2.67;;;;;;;23.22;nan;100247.75;5008685;28;20025;-68
2022/07/31 10:30:57;;;;;;;3.80;2.83;;;;;;;23.32;nan;100264.38;5007962;28;20940;-69
2022/07/31 10:33:25;;;;;;;6.47;2.55;;;;;;;23.36;nan;100251.09;5009393;28;20030;-71
2022/07/31 10:36:04;;;;;;;10.00;2.33;;;;;;;23.44;nan;100247.63;5010952;28;20030;-69
2022/07/31 10:39:08;;;;;;;2.55;1.85;;;;;;;23.48;nan;100253.94;5011905;28;20029;-70
2022/07/31 10:42:14;;;;;;;2.80;2.20;;;;;;;23.53;nan;100256.47;4991937;28;20073;-69
2022/07/31 10:44:53;;;;;;;2.28;2.00;;;;;;;23.56;nan;100252.38;5003711;28;20492;-70
2022/07/31 10:47:19;;;;;;;;;;;;;;;23.56;nan;100242.41;5001231;28;20042;-70
2022/07/31 10:49:47;;;;;;;4.22;2.65;;;;;;;23.64;nan;100245.44;5005434;28;20450;-69
2022/07/31 10:52:24;;;;;;;3.53;2.90;;;;;;;23.69;nan;100237.97;4988651;28;20045;-69
2022/07/31 10:54:50;;;;;;;3.08;2.67;;;;;;;23.71;nan;100254.59;4983324;28;20264;-69
2022/07/31 10:57:25;;;;;;;5.88;2.38;;;;;;;23.79;nan;100220.75;4999481;28;20026;-70
2022/07/31 10:59:52;;;;;;;4.28;3.10;;;;;;;23.75;nan;100180.28;4995512;28;20065;-69
2022/07/31 11:02:33;;;;;;;5.40;2.60;;;;;;;23.86;nan;100266.00;5004878;28;20088;-69
2022/07/31 11:05:12;;;;;;;3.17;2.53;;;;;;;23.91;nan;100244.31;5001887;28;20492;-70
2022/07/31 11:07:38;;;;;;;4.80;2.17;;;;;;;23.78;nan;100306.03;5004407;28;20052;-70
2022/07/31 11:10:13;;;;;;;2.40;2.17;;;;;;;23.93;nan;100232.16;4997777;28;20112;-69
2022/07/31 11:12:39;;;;;;;5.20;2.08;;;;;;;24.04;nan;100240.69;5000883;28;20038;-70
2022/07/31 11:15:17;;;;;;;4.50;1.63;;;;;;;24.09;nan;100282.78;5005062;28;20038;-71
2022/07/31 11:17:45;;;;;;;3.08;2.60;;;;;;;24.04;nan;100261.38;5006993;28;20045;-72
2022/07/31 11:20:28;;;;;;;11.35;7.07;;;;;;;24.15;nan;100190.00;5008420;28;20095;-70
2022/07/31 11:23:05;;;;;;;3.63;2.65;;;;;;;24.30;nan;100239.81;5005940;28;20096;-72
2022/07/31 11:25:36;;;;;;;5.78;2.25;;;;;;;24.42;nan;100248.81;5007138;28;20041;-70
2022/07/31 11:28:13;;;;;;;3.33;1.85;;;;;;;24.40;nan;100231.41;5004386;28;20044;-70
2022/07/31 11:30:52;;;;;;;2.60;2.00;;;;;;;24.45;nan;100238.53;5007145;28;20037;-68
2022/07/31 11:33:48;;;;;;;2.10;1.90;;;;;;;24.50;nan;100211.47;5008352;28;20045;-70
2022/07/31 11:36:22;;;;;;;1.48;1.38;;;;;;;24.50;nan;100228.41;5000441;28;20133;-71
2022/07/31 11:38:56;;;;;;;2.80;1.55;;;;;;;24.56;nan;100237.84;5005566;28;20034;-70
2022/07/31 11:41:28;;;;;;;5.35;2.25;;;;;;;24.66;nan;100219.75;5005132;28;20025;-70
2022/07/31 11:43:56;;;;;;;4.28;1.70;;;;;;;24.58;nan;100230.25;5004944;28;20029;-70
2022/07/31 11:46:24;;;;;;;4.45;1.80;;;;;;;24.44;nan;100220.78;5003050;28;20034;-70
2022/07/31 11:48:50;;;;;;;1.63;1.48;;;;;;;24.48;nan;100273.69;5005675;28;20053;-69
2022/07/31 11:51:18;;;;;;;2.47;1.42;;;;;;;24.66;nan;100203.63;5007880;28;20038;-69
2022/07/31 11:53:44;;;;;;;7.03;1.75;;;;;;;24.60;nan;100195.72;5006086;28;20034;-69
2022/07/31 11:56:09;;;;;;;2.72;1.60;;;;;;;24.58;nan;100207.94;5007071;28;20113;-68